Autopride — CQQE — position and weather

sailwx.info

Track history (hours):
 
Tides and Currents Weather Stations Pressure Air Temp Water Temp Dewpoint Dewpoint Depression Visibility Wind Speed Wind Dir Waves Ship Positions

Autopride

Last reported at 2017-Apr-28 02:25 UTC. Time now 2017-Apr-28 02:34 UTC.
Position N 53°34' E 008°34'.

Length 125 m; draft 4.8 m.

Type: Cargo ship. MMSI: 255801560.

Date/timePositionNaut miles runAvg speedWind from/ knotsBaromVisibWave heightAir tempDewpointWater temp
2017-Apr-28 02:25N 53°34' E 008°34'0 0.0
2017-Apr-28 01:58N 53°34' E 008°34'0 0.0
2017-Apr-28 01:28N 53°34' E 008°34'0 0.0
2017-Apr-28 00:58N 53°34' E 008°34'0 0.0
2017-Apr-28 00:28N 53°34' E 008°34'0 0.0
2017-Apr-27 23:58N 53°34' E 008°34'0 0.0
2017-Apr-27 23:28N 53°34' E 008°34'0 0.0
2017-Apr-27 22:55N 53°34' E 008°34'0 0.0
2017-Apr-27 22:25N 53°34' E 008°34'0 0.0
2017-Apr-27 21:55N 53°34' E 008°34'0 0.0
2017-Apr-27 21:28N 53°34' E 008°34'0 0.0
2017-Apr-27 20:58N 53°34' E 008°34'0 0.0
2017-Apr-27 20:28N 53°34' E 008°34'0 0.0
2017-Apr-27 19:58N 53°34' E 008°34'0 0.0
2017-Apr-27 19:25N 53°34' E 008°34'0 0.0
2017-Apr-27 19:00N 53°34' E 008°34'1 1.6
2017-Apr-27 18:30N 53°34' E 008°33'0 0.5
2017-Apr-27 18:00N 53°34' E 008°33'2 4.2
2017-Apr-27 17:30N 53°36' E 008°31'815.2
2017-Apr-27 17:00N 53°41' E 008°21'816.2
2017-Apr-27 16:30N 53°46' E 008°11'816.1
2017-Apr-27 16:00N 53°51' E 007°60'817.0
2017-Apr-27 15:30N 53°53' E 007°46'611.8
2017-Apr-27 14:59N 53°57' E 007°37'4712.0
2017-Apr-27 11:05N 54°43' E 007°25'112.1
2017-Apr-27 11:00N 54°44' E 007°25'612.2
2017-Apr-27 10:30N 54°50' E 007°25'612.3
2017-Apr-27 10:00N 54°56' E 007°25'612.6
2017-Apr-27 09:30N 55°02' E 007°25'612.4
2017-Apr-27 09:00N 55°09' E 007°24'612.4
2017-Apr-27 08:30N 55°15' E 007°24'612.4
2017-Apr-27 08:00N 55°21' E 007°23'612.2
2017-Apr-27 07:30N 55°27' E 007°22'612.1
2017-Apr-27 07:00N 55°33' E 007°22'611.5
2017-Apr-27 06:30N 55°39' E 007°24'611.8
2017-Apr-27 05:59N 55°45' E 007°27'612.0
2017-Apr-27 05:29N 55°50' E 007°30'612.2
2017-Apr-27 04:58N 55°56' E 007°33'13911.7
2017-Apr-26 17:05N 58°02' E 009°25'112.0
2017-Apr-26 17:00N 58°03' E 009°26'612.4
2017-Apr-26 16:28N 58°08' E 009°33'612.3
2017-Apr-26 16:00N 58°12' E 009°40'2212.1
2017-Apr-26 14:09N 58°31' E 010°03'811.9
2017-Apr-26 13:30N 58°38' E 010°10'713.3
2017-Apr-26 13:00N 58°44' E 010°17'3 6.9
2017-Apr-26 12:30N 58°47' E 010°20'3 5.3
2017-Apr-26 12:00N 58°49' E 010°22'611.4
2017-Apr-26 11:30N 58°54' E 010°26'611.4
2017-Apr-26 11:00N 58°59' E 010°32'611.9
2017-Apr-26 10:30N 59°05' E 010°36'815.3
2017-Apr-26 10:00N 59°12' E 010°38'816.5
2017-Apr-26 09:31N 59°20' E 010°35'714.8
2017-Apr-26 09:01N 59°28' E 010°34'1019.8
2017-Apr-26 08:31N 59°38' E 010°37'815.9
2017-Apr-26 08:00N 59°45' E 010°33'714.4
2017-Apr-26 07:30N 59°52' E 010°38'4 7.9
2017-Apr-26 07:00N 59°53' E 010°46'0 0.0
2017-Apr-26 06:30N 59°53' E 010°46'0 0.0
2017-Apr-26 06:00N 59°53' E 010°46'0 0.0
2017-Apr-26 05:30N 59°53' E 010°46'0 0.0
2017-Apr-26 05:00N 59°53' E 010°46'0 0.0
2017-Apr-26 04:30N 59°53' E 010°46'0 0.0
2017-Apr-26 04:00N 59°53' E 010°46'0 0.0
2017-Apr-26 03:30N 59°53' E 010°46'0 0.0
2017-Apr-26 03:00N 59°53' E 010°46'0 0.0
2017-Apr-26 02:30N 59°53' E 010°46'0 0.0
2017-Apr-26 02:00N 59°53' E 010°46'0 0.0
2017-Apr-26 01:30N 59°53' E 010°46'0 0.0
2017-Apr-26 01:00N 59°53' E 010°46'0 0.0
2017-Apr-26 00:30N 59°53' E 010°46'0 0.0
2017-Apr-26 00:00N 59°53' E 010°46'0 0.0
2017-Apr-25 23:30N 59°53' E 010°46'0 0.0
2017-Apr-25 23:00N 59°53' E 010°46'0 0.0
2017-Apr-25 22:30N 59°53' E 010°46'0 0.0
2017-Apr-25 22:00N 59°53' E 010°46'0 0.0
2017-Apr-25 21:30N 59°53' E 010°46'0 0.0
2017-Apr-25 21:00N 59°53' E 010°46'0 0.0
2017-Apr-25 20:30N 59°53' E 010°46'0 0.0
2017-Apr-25 20:00N 59°53' E 010°46'0 0.0
2017-Apr-25 19:30N 59°53' E 010°46'0 0.0
2017-Apr-25 19:00N 59°53' E 010°46'0 0.0
2017-Apr-25 18:30N 59°53' E 010°46'0 0.0
2017-Apr-25 18:00N 59°53' E 010°46'0 0.0
2017-Apr-25 17:30N 59°53' E 010°46'0 0.0
2017-Apr-25 17:00N 59°53' E 010°46'0 0.0
2017-Apr-25 16:30N 59°53' E 010°46'0 0.0
2017-Apr-25 16:00N 59°53' E 010°46'0 0.0
2017-Apr-25 15:30N 59°53' E 010°46'0 0.0
2017-Apr-25 15:00N 59°53' E 010°46'0 0.0
2017-Apr-25 14:30N 59°53' E 010°46'3 2.8
2017-Apr-25 13:30N 59°52' E 010°40'714.4
2017-Apr-25 13:00N 59°46' E 010°34'713.9
2017-Apr-25 12:30N 59°39' E 010°37'917.0
2017-Apr-25 12:00N 59°31' E 010°36'917.5
2017-Apr-25 11:30N 59°22' E 010°35'917.9
2017-Apr-25 11:00N 59°13' E 010°38'816.8
2017-Apr-25 10:30N 59°05' E 010°36'917.3
2017-Apr-25 10:00N 58°57' E 010°29'918.2
2017-Apr-25 09:30N 58°50' E 010°19'918.3
2017-Apr-25 09:00N 58°42' E 010°10'918.4
2017-Apr-25 08:30N 58°34' E 010°00'918.2
2017-Apr-25 08:00N 58°27' E 009°50'18017.4
2017-Apr-24 21:39N 55°45' E 007°26'317.3
2017-Apr-24 21:27N 55°41' E 007°24'816.8
2017-Apr-24 20:57N 55°33' E 007°22'816.9
2017-Apr-24 20:30N 55°26' E 007°23'816.7
2017-Apr-24 20:00N 55°17' E 007°24'815.9
2017-Apr-24 19:30N 55°09' E 007°26'613.2
2017-Apr-24 19:00N 55°03' E 007°26'713.4
2017-Apr-24 18:30N 54°56' E 007°27'917.1
2017-Apr-24 18:00N 54°48' E 007°28'917.5
2017-Apr-24 17:30N 54°39' E 007°29'4617.3
2017-Apr-24 14:51N 53°54' E 007°45'617.9
2017-Apr-24 14:30N 53°52' E 007°55'1918.8
2017-Apr-24 13:30N 53°41' E 008°21'917.0
2017-Apr-24 13:00N 53°35' E 008°31'2 4.5
2017-Apr-24 12:30N 53°33' E 008°34'0 0.5
2017-Apr-24 12:00N 53°34' E 008°34'0 0.5
2017-Apr-24 11:27N 53°34' E 008°34'0 0.0
2017-Apr-24 11:00N 53°34' E 008°34'0 0.0
2017-Apr-24 10:30N 53°34' E 008°34'0 0.0
2017-Apr-24 10:00N 53°34' E 008°34'0 0.0
2017-Apr-24 09:30N 53°34' E 008°34'0 0.0
2017-Apr-24 09:00N 53°34' E 008°34'0 0.0
2017-Apr-24 08:30N 53°34' E 008°34'0 0.0
2017-Apr-24 08:00N 53°34' E 008°34'0 0.0
2017-Apr-24 07:30N 53°34' E 008°34'0 0.0
2017-Apr-24 07:00N 53°34' E 008°34'0 0.0
2017-Apr-24 06:30N 53°34' E 008°34'0 0.0
2017-Apr-24 06:00N 53°34' E 008°34'0 0.0
2017-Apr-24 05:29N 53°34' E 008°34'0 0.0
2017-Apr-24 04:59N 53°34' E 008°34'0 0.0
2017-Apr-24 04:29N 53°34' E 008°34'0 0.0
2017-Apr-24 03:56N 53°34' E 008°34'0 0.0
2017-Apr-24 03:29N 53°34' E 008°34'0 0.0
2017-Apr-24 02:59N 53°34' E 008°34'0 0.0
2017-Apr-24 02:29N 53°34' E 008°34'0 0.0
2017-Apr-24 01:59N 53°34' E 008°34'0 0.0
2017-Apr-24 01:29N 53°34' E 008°34'0 0.0
2017-Apr-24 00:59N 53°34' E 008°34'0 0.0
2017-Apr-24 00:29N 53°34' E 008°34'0 0.0
2017-Apr-23 23:59N 53°34' E 008°34'0 0.0
2017-Apr-23 23:26N 53°34' E 008°34'0 0.0
2017-Apr-23 22:59N 53°34' E 008°34'0 0.0
2017-Apr-23 22:29N 53°34' E 008°34'0 0.0
2017-Apr-23 21:59N 53°34' E 008°34'0 0.0
2017-Apr-23 21:29N 53°34' E 008°34'0 0.0
2017-Apr-23 20:59N 53°34' E 008°34'0 0.0
2017-Apr-23 20:29N 53°34' E 008°34'0 0.0
2017-Apr-23 19:59N 53°34' E 008°34'0 0.0
2017-Apr-23 19:29N 53°34' E 008°34'0 0.0
2017-Apr-23 18:59N 53°34' E 008°34'0 0.0
2017-Apr-23 18:29N 53°34' E 008°34'0 0.0
2017-Apr-23 17:59N 53°34' E 008°34'0 0.0
2017-Apr-23 17:29N 53°34' E 008°34'0 0.0
2017-Apr-23 16:59N 53°34' E 008°34'0 0.3
2017-Apr-23 16:30N 53°34' E 008°34'1 2.1
2017-Apr-23 16:00N 53°35' E 008°33'0 0.0
2017-Apr-23 15:30N 53°35' E 008°33'0 0.0
2017-Apr-23 15:00N 53°35' E 008°33'0 0.0
2017-Apr-23 14:00N 53°35' E 008°33'0 0.0
2017-Apr-23 13:30N 53°35' E 008°33'0 0.0
2017-Apr-23 13:00N 53°35' E 008°33'0 0.0
2017-Apr-23 12:30N 53°35' E 008°33'0 0.0
2017-Apr-23 12:00N 53°35' E 008°33'0 0.0
2017-Apr-23 11:30N 53°35' E 008°33'0 0.0
2017-Apr-23 11:00N 53°35' E 008°33'0 0.0
2017-Apr-23 10:30N 53°35' E 008°33'0 0.0
2017-Apr-23 10:00N 53°35' E 008°33'0 0.0
2017-Apr-23 09:30N 53°35' E 008°33'0 0.0
2017-Apr-23 09:00N 53°35' E 008°33'0 0.0
2017-Apr-23 08:30N 53°35' E 008°33'0 0.0
2017-Apr-23 08:00N 53°35' E 008°33'0 0.0
2017-Apr-23 07:30N 53°35' E 008°33'0 0.0
2017-Apr-23 06:57N 53°35' E 008°33'0 0.0
2017-Apr-23 06:27N 53°35' E 008°33'0 0.0
2017-Apr-23 06:00N 53°35' E 008°33'1 2.6
2017-Apr-23 05:30N 53°33' E 008°34'0 0.0
2017-Apr-23 05:01N 53°33' E 008°34'3 5.3
2017-Apr-23 04:30N 53°36' E 008°31'917.0
2017-Apr-23 04:00N 53°42' E 008°21'918.1
2017-Apr-23 03:29N 53°48' E 008°08'816.8
2017-Apr-23 03:00N 53°51' E 007°56'815.6
2017-Apr-23 02:29N 53°53' E 007°43'612.5
2017-Apr-23 02:00N 53°58' E 007°37'4611.2
2017-Apr-22 21:53N 54°44' E 007°25'512.1
2017-Apr-22 21:28N 54°49' E 007°25'611.7
2017-Apr-22 21:00N 54°54' E 007°25'611.7
2017-Apr-22 20:31N 54°60' E 007°25'611.8
2017-Apr-22 20:01N 55°06' E 007°25'611.6
2017-Apr-22 19:31N 55°12' E 007°25'611.7
2017-Apr-22 19:01N 55°18' E 007°25'612.0
2017-Apr-22 18:31N 55°24' E 007°24'612.2
2017-Apr-22 18:01N 55°30' E 007°24'612.4
2017-Apr-22 17:30N 55°36' E 007°25'712.6
2017-Apr-22 16:57N 55°43' E 007°28'612.7
2017-Apr-22 16:31N 55°48' E 007°31'912.6
2017-Apr-22 15:47N 55°57' E 007°35'412.4
2017-Apr-22 15:29N 56°00' E 007°36'13512.8
2017-Apr-22 04:56N 57°44' E 010°14'715.8
2017-Apr-22 04:30N 57°46' E 010°26'816.6
2017-Apr-22 04:00N 57°48' E 010°41'815.6
2017-Apr-22 03:30N 57°45' E 010°54'816.4
2017-Apr-22 03:00N 57°39' E 011°06'816.3
2017-Apr-22 02:30N 57°34' E 011°18'816.4
2017-Apr-22 02:00N 57°27' E 011°27'816.1
2017-Apr-22 01:30N 57°20' E 011°32'816.1
2017-Apr-22 01:01N 57°13' E 011°37'815.9
2017-Apr-22 00:30N 57°05' E 011°42'916.3
2017-Apr-21 23:57N 56°56' E 011°48'4614.8
2017-Apr-21 20:53N 56°14' E 012°16'515.0
2017-Apr-21 20:31N 56°11' E 012°24'815.7
2017-Apr-21 20:01N 56°06' E 012°35'714.2
2017-Apr-21 19:30N 55°60' E 012°41'816.8
2017-Apr-21 19:00N 55°51' E 012°43'816.9
2017-Apr-21 18:30N 55°43' E 012°39'1 2.5
2017-Apr-21 17:58N 55°43' E 012°37'0 0.0
2017-Apr-21 17:28N 55°43' E 012°37'0 0.0
2017-Apr-21 16:58N 55°43' E 012°37'0 0.0
2017-Apr-21 16:28N 55°43' E 012°37'0 0.2
2017-Apr-21 16:00N 55°43' E 012°37'713.7
2017-Apr-21 15:30N 55°48' E 012°44'510.9
2017-Apr-21 15:00N 55°53' E 012°40'5 9.8
2017-Apr-21 14:31N 55°58' E 012°41'1211.5
2017-Apr-21 13:31N 56°08' E 012°29'611.6
2017-Apr-21 13:01N 56°11' E 012°21'5511.3
2017-Apr-21 08:09N 57°01' E 011°41'312.3
2017-Apr-21 07:55N 57°04' E 011°40'511.7
2017-Apr-21 07:29N 57°09' E 011°36'611.7
2017-Apr-21 07:00N 57°14' E 011°33'611.9
2017-Apr-21 06:31N 57°19' E 011°29'611.9
2017-Apr-21 06:00N 57°25' E 011°26'611.7
2017-Apr-21 05:31N 57°30' E 011°20'611.7
2017-Apr-21 05:01N 57°34' E 011°12'611.6
2017-Apr-21 04:30N 57°38' E 011°04'612.4
2017-Apr-21 04:00N 57°42' E 010°54'713.6
2017-Apr-21 03:30N 57°47' E 010°47'612.8
2017-Apr-21 03:00N 57°54' E 010°45'612.2
2017-Apr-21 02:30N 57°60' E 010°44'612.2
2017-Apr-21 02:00N 58°06' E 010°43'612.1
2017-Apr-21 01:29N 58°12' E 010°43'612.0
2017-Apr-21 01:01N 58°18' E 010°43'612.1
2017-Apr-21 00:30N 58°24' E 010°42'611.9
2017-Apr-21 00:00N 58°30' E 010°41'611.4
2017-Apr-20 23:30N 58°35' E 010°41'611.4
2017-Apr-20 23:01N 58°41' E 010°41'611.3
2017-Apr-20 22:30N 58°47' E 010°41'611.6
2017-Apr-20 22:00N 58°53' E 010°41'612.2
2017-Apr-20 21:30N 58°59' E 010°41'611.6
2017-Apr-20 21:00N 59°04' E 010°40'815.4
2017-Apr-20 20:31N 59°12' E 010°38'1019.1
2017-Apr-20 20:01N 59°22' E 010°35'918.7
2017-Apr-20 19:31N 59°30' E 010°27'612.2
2017-Apr-20 19:00N 59°36' E 010°25'5 9.2
2017-Apr-20 18:30N 59°41' E 010°23'611.4
2017-Apr-20 18:00N 59°44' E 010°14'0 0.1
2017-Apr-20 17:28N 59°44' E 010°14'0 0.0
2017-Apr-20 16:58N 59°44' E 010°14'0 0.0
2017-Apr-20 16:28N 59°44' E 010°14'0 0.0
2017-Apr-20 15:58N 59°44' E 010°14'0 0.0
2017-Apr-20 15:31N 59°44' E 010°14'0 0.0
2017-Apr-20 15:01N 59°44' E 010°14'0 0.0
2017-Apr-20 13:48N 59°44' E 010°14'0 0.0
2017-Apr-20 13:30N 59°44' E 010°14'0 0.0
2017-Apr-20 13:00N 59°44' E 010°14'0 0.0
2017-Apr-20 12:27N 59°44' E 010°14'0 0.0
2017-Apr-20 12:00N 59°44' E 010°14'1 1.3
2017-Apr-20 11:30N 59°44' E 010°15'612.2
2017-Apr-20 11:00N 59°40' E 010°24'5 9.4
2017-Apr-20 10:30N 59°35' E 010°25'713.5
2017-Apr-20 10:01N 59°29' E 010°30'917.6
2017-Apr-20 09:30N 59°37' E 010°38'815.1
2017-Apr-20 09:00N 59°44' E 010°33'917.7
2017-Apr-20 08:30N 59°52' E 010°38'4 7.1
2017-Apr-20 07:58N 59°53' E 010°46'0 0.0
2017-Apr-20 07:31N 59°53' E 010°46'0 0.0
2017-Apr-20 07:01N 59°53' E 010°46'0 0.0
2017-Apr-20 06:30N 59°53' E 010°46'0 0.0
2017-Apr-20 06:00N 59°53' E 010°46'0 0.0
2017-Apr-20 05:30N 59°53' E 010°46'0 0.0
2017-Apr-20 05:00N 59°53' E 010°46'0 0.0
2017-Apr-20 04:30N 59°53' E 010°46'3 6.3
2017-Apr-20 04:00N 59°53' E 010°40'917.4
2017-Apr-20 03:30N 59°44' E 010°35'714.1
2017-Apr-20 03:00N 59°37' E 010°38'1019.4
2017-Apr-20 02:30N 59°28' E 010°34'1019.4
2017-Apr-20 02:00N 59°18' E 010°37'1019.4
2017-Apr-20 01:31N 59°09' E 010°39'1019.2
2017-Apr-20 01:01N 58°60' E 010°32'917.4
2017-Apr-20 00:31N 58°53' E 010°23'816.7
2017-Apr-20 00:00N 58°45' E 010°15'816.7
2017-Apr-19 23:31N 58°38' E 010°06'19517.2
2017-Apr-19 12:10N 55°44' E 007°26'417.3
2017-Apr-19 11:57N 55°41' E 007°24'817.2
2017-Apr-19 11:30N 55°33' E 007°22'917.7
2017-Apr-19 11:00N 55°24' E 007°23'918.2
2017-Apr-19 10:30N 55°15' E 007°24'918.5
2017-Apr-19 10:00N 55°06' E 007°25'918.7
2017-Apr-19 09:30N 54°56' E 007°26'918.8
2017-Apr-19 09:00N 54°47' E 007°27'919.0
2017-Apr-19 08:30N 54°37' E 007°28'4717.8
2017-Apr-19 05:52N 53°52' E 007°52'719.7
2017-Apr-19 05:30N 53°50' E 008°04'919.0
2017-Apr-19 05:00N 53°44' E 008°15'917.9
2017-Apr-19 04:30N 53°38' E 008°27'612.0
2017-Apr-19 04:00N 53°33' E 008°33'0 0.6
2017-Apr-19 03:30N 53°33' E 008°34'1 1.1
2017-Apr-19 03:00N 53°34' E 008°34'0 0.0
2017-Apr-19 02:30N 53°34' E 008°34'0 0.0
2017-Apr-19 02:00N 53°34' E 008°34'0 0.0
2017-Apr-19 01:30N 53°34' E 008°34'0 0.0
2017-Apr-19 01:00N 53°34' E 008°34'0 0.0
2017-Apr-19 00:29N 53°34' E 008°34'0 0.0
2017-Apr-18 23:59N 53°34' E 008°34'0 0.0
2017-Apr-18 23:29N 53°34' E 008°34'0 0.0
2017-Apr-18 22:59N 53°34' E 008°34'0 0.0
2017-Apr-18 22:29N 53°34' E 008°34'0 0.0
2017-Apr-18 21:59N 53°34' E 008°34'0 0.0
2017-Apr-18 21:29N 53°34' E 008°34'0 0.0
2017-Apr-18 20:59N 53°34' E 008°34'0 1.0
2017-Apr-18 20:30N 53°34' E 008°33'1 1.5
2017-Apr-18 20:00N 53°35' E 008°33'0 0.0
2017-Apr-18 19:30N 53°35' E 008°33'0 0.0
2017-Apr-18 19:00N 53°35' E 008°33'0 0.0
2017-Apr-18 18:30N 53°35' E 008°33'0 0.0
2017-Apr-18 18:00N 53°35' E 008°33'0 0.0
2017-Apr-18 17:30N 53°35' E 008°33'0 0.0
2017-Apr-18 17:00N 53°35' E 008°33'0 0.0
2017-Apr-18 16:30N 53°35' E 008°33'0 0.0
2017-Apr-18 16:00N 53°35' E 008°33'1 1.0
2017-Apr-18 15:30N 53°34' E 008°33'3 5.7
2017-Apr-18 15:00N 53°36' E 008°30'918.0
2017-Apr-18 14:30N 53°42' E 008°18'1919.5
2017-Apr-18 13:30N 53°52' E 007°50'5210.8
2017-Apr-18 08:43N 54°42' E 007°25'312.2
2017-Apr-18 08:30N 54°45' E 007°25'612.0
2017-Apr-18 08:00N 54°51' E 007°25'612.0
2017-Apr-18 07:30N 54°57' E 007°25'611.8
2017-Apr-18 07:00N 55°02' E 007°25'713.9
2017-Apr-18 06:30N 55°09' E 007°25'816.8
2017-Apr-18 06:00N 55°18' E 007°24'816.8
2017-Apr-18 05:30N 55°26' E 007°22'816.7
2017-Apr-18 05:00N 55°35' E 007°21'916.6
2017-Apr-18 04:27N 55°43' E 007°25'816.9
2017-Apr-18 03:59N 55°51' E 007°29'  
Track history (hours):
 
Tides and Currents Weather Stations Pressure Air Temp Water Temp Dewpoint Dewpoint Depression Visibility Wind Speed Wind Dir Waves Ship Positions

Autopride

Last reported at 2017-Apr-28 02:25 UTC. Time now 2017-Apr-28 02:34 UTC.
Position N 53°34' E 008°34'.

Length 125 m; draft 4.8 m.

Type: Cargo ship. MMSI: 255801560.

Date/timePositionNaut miles runAvg speedWind from/ knotsBaromVisibWave heightAir tempDewpointWater temp
2017-Apr-28 02:25N 53°34' E 008°34'0 0.0
2017-Apr-28 01:58N 53°34' E 008°34'0 0.0
2017-Apr-28 01:28N 53°34' E 008°34'0 0.0
2017-Apr-28 00:58N 53°34' E 008°34'0 0.0
2017-Apr-28 00:28N 53°34' E 008°34'0 0.0
2017-Apr-27 23:58N 53°34' E 008°34'0 0.0
2017-Apr-27 23:28N 53°34' E 008°34'0 0.0
2017-Apr-27 22:55N 53°34' E 008°34'0 0.0
2017-Apr-27 22:25N 53°34' E 008°34'0 0.0
2017-Apr-27 21:55N 53°34' E 008°34'0 0.0
2017-Apr-27 21:28N 53°34' E 008°34'0 0.0
2017-Apr-27 20:58N 53°34' E 008°34'0 0.0
2017-Apr-27 20:28N 53°34' E 008°34'0 0.0
2017-Apr-27 19:58N 53°34' E 008°34'0 0.0
2017-Apr-27 19:25N 53°34' E 008°34'0 0.0
2017-Apr-27 19:00N 53°34' E 008°34'1 1.6
2017-Apr-27 18:30N 53°34' E 008°33'0 0.5
2017-Apr-27 18:00N 53°34' E 008°33'2 4.2
2017-Apr-27 17:30N 53°36' E 008°31'815.2
2017-Apr-27 17:00N 53°41' E 008°21'816.2
2017-Apr-27 16:30N 53°46' E 008°11'816.1
2017-Apr-27 16:00N 53°51' E 007°60'817.0
2017-Apr-27 15:30N 53°53' E 007°46'611.8
2017-Apr-27 14:59N 53°57' E 007°37'4712.0
2017-Apr-27 11:05N 54°43' E 007°25'112.1
2017-Apr-27 11:00N 54°44' E 007°25'612.2
2017-Apr-27 10:30N 54°50' E 007°25'612.3
2017-Apr-27 10:00N 54°56' E 007°25'612.6
2017-Apr-27 09:30N 55°02' E 007°25'612.4
2017-Apr-27 09:00N 55°09' E 007°24'612.4
2017-Apr-27 08:30N 55°15' E 007°24'612.4
2017-Apr-27 08:00N 55°21' E 007°23'612.2
2017-Apr-27 07:30N 55°27' E 007°22'612.1
2017-Apr-27 07:00N 55°33' E 007°22'611.5
2017-Apr-27 06:30N 55°39' E 007°24'611.8
2017-Apr-27 05:59N 55°45' E 007°27'612.0
2017-Apr-27 05:29N 55°50' E 007°30'612.2
2017-Apr-27 04:58N 55°56' E 007°33'13911.7
2017-Apr-26 17:05N 58°02' E 009°25'112.0
2017-Apr-26 17:00N 58°03' E 009°26'612.4
2017-Apr-26 16:28N 58°08' E 009°33'612.3
2017-Apr-26 16:00N 58°12' E 009°40'2212.1
2017-Apr-26 14:09N 58°31' E 010°03'811.9
2017-Apr-26 13:30N 58°38' E 010°10'713.3
2017-Apr-26 13:00N 58°44' E 010°17'3 6.9
2017-Apr-26 12:30N 58°47' E 010°20'3 5.3
2017-Apr-26 12:00N 58°49' E 010°22'611.4
2017-Apr-26 11:30N 58°54' E 010°26'611.4
2017-Apr-26 11:00N 58°59' E 010°32'611.9
2017-Apr-26 10:30N 59°05' E 010°36'815.3
2017-Apr-26 10:00N 59°12' E 010°38'816.5
2017-Apr-26 09:31N 59°20' E 010°35'714.8
2017-Apr-26 09:01N 59°28' E 010°34'1019.8
2017-Apr-26 08:31N 59°38' E 010°37'815.9
2017-Apr-26 08:00N 59°45' E 010°33'714.4
2017-Apr-26 07:30N 59°52' E 010°38'4 7.9
2017-Apr-26 07:00N 59°53' E 010°46'0 0.0
2017-Apr-26 06:30N 59°53' E 010°46'0 0.0
2017-Apr-26 06:00N 59°53' E 010°46'0 0.0
2017-Apr-26 05:30N 59°53' E 010°46'0 0.0
2017-Apr-26 05:00N 59°53' E 010°46'0 0.0
2017-Apr-26 04:30N 59°53' E 010°46'0 0.0
2017-Apr-26 04:00N 59°53' E 010°46'0 0.0
2017-Apr-26 03:30N 59°53' E 010°46'0 0.0
2017-Apr-26 03:00N 59°53' E 010°46'0 0.0
2017-Apr-26 02:30N 59°53' E 010°46'0 0.0
2017-Apr-26 02:00N 59°53' E 010°46'0 0.0
2017-Apr-26 01:30N 59°53' E 010°46'0 0.0
2017-Apr-26 01:00N 59°53' E 010°46'0 0.0
2017-Apr-26 00:30N 59°53' E 010°46'0 0.0
2017-Apr-26 00:00N 59°53' E 010°46'0 0.0
2017-Apr-25 23:30N 59°53' E 010°46'0 0.0
2017-Apr-25 23:00N 59°53' E 010°46'0 0.0
2017-Apr-25 22:30N 59°53' E 010°46'0 0.0
2017-Apr-25 22:00N 59°53' E 010°46'0 0.0
2017-Apr-25 21:30N 59°53' E 010°46'0 0.0
2017-Apr-25 21:00N 59°53' E 010°46'0 0.0
2017-Apr-25 20:30N 59°53' E 010°46'0 0.0
2017-Apr-25 20:00N 59°53' E 010°46'0 0.0
2017-Apr-25 19:30N 59°53' E 010°46'0 0.0
2017-Apr-25 19:00N 59°53' E 010°46'0 0.0
2017-Apr-25 18:30N 59°53' E 010°46'0 0.0
2017-Apr-25 18:00N 59°53' E 010°46'0 0.0
2017-Apr-25 17:30N 59°53' E 010°46'0 0.0
2017-Apr-25 17:00N 59°53' E 010°46'0 0.0
2017-Apr-25 16:30N 59°53' E 010°46'0 0.0
2017-Apr-25 16:00N 59°53' E 010°46'0 0.0
2017-Apr-25 15:30N 59°53' E 010°46'0 0.0
2017-Apr-25 15:00N 59°53' E 010°46'0 0.0
2017-Apr-25 14:30N 59°53' E 010°46'3 2.8
2017-Apr-25 13:30N 59°52' E 010°40'714.4
2017-Apr-25 13:00N 59°46' E 010°34'713.9
2017-Apr-25 12:30N 59°39' E 010°37'917.0
2017-Apr-25 12:00N 59°31' E 010°36'917.5
2017-Apr-25 11:30N 59°22' E 010°35'917.9
2017-Apr-25 11:00N 59°13' E 010°38'816.8
2017-Apr-25 10:30N 59°05' E 010°36'917.3
2017-Apr-25 10:00N 58°57' E 010°29'918.2
2017-Apr-25 09:30N 58°50' E 010°19'918.3
2017-Apr-25 09:00N 58°42' E 010°10'918.4
2017-Apr-25 08:30N 58°34' E 010°00'918.2
2017-Apr-25 08:00N 58°27' E 009°50'18017.4
2017-Apr-24 21:39N 55°45' E 007°26'317.3
2017-Apr-24 21:27N 55°41' E 007°24'816.8
2017-Apr-24 20:57N 55°33' E 007°22'816.9
2017-Apr-24 20:30N 55°26' E 007°23'816.7
2017-Apr-24 20:00N 55°17' E 007°24'815.9
2017-Apr-24 19:30N 55°09' E 007°26'613.2
2017-Apr-24 19:00N 55°03' E 007°26'713.4
2017-Apr-24 18:30N 54°56' E 007°27'917.1
2017-Apr-24 18:00N 54°48' E 007°28'917.5
2017-Apr-24 17:30N 54°39' E 007°29'4617.3
2017-Apr-24 14:51N 53°54' E 007°45'617.9
2017-Apr-24 14:30N 53°52' E 007°55'1918.8
2017-Apr-24 13:30N 53°41' E 008°21'917.0
2017-Apr-24 13:00N 53°35' E 008°31'2 4.5
2017-Apr-24 12:30N 53°33' E 008°34'0 0.5
2017-Apr-24 12:00N 53°34' E 008°34'0 0.5
2017-Apr-24 11:27N 53°34' E 008°34'0 0.0
2017-Apr-24 11:00N 53°34' E 008°34'0 0.0
2017-Apr-24 10:30N 53°34' E 008°34'0 0.0
2017-Apr-24 10:00N 53°34' E 008°34'0 0.0
2017-Apr-24 09:30N 53°34' E 008°34'0 0.0
2017-Apr-24 09:00N 53°34' E 008°34'0 0.0
2017-Apr-24 08:30N 53°34' E 008°34'0 0.0
2017-Apr-24 08:00N 53°34' E 008°34'0 0.0
2017-Apr-24 07:30N 53°34' E 008°34'0 0.0
2017-Apr-24 07:00N 53°34' E 008°34'0 0.0
2017-Apr-24 06:30N 53°34' E 008°34'0 0.0
2017-Apr-24 06:00N 53°34' E 008°34'0 0.0
2017-Apr-24 05:29N 53°34' E 008°34'0 0.0
2017-Apr-24 04:59N 53°34' E 008°34'0 0.0
2017-Apr-24 04:29N 53°34' E 008°34'0 0.0
2017-Apr-24 03:56N 53°34' E 008°34'0 0.0
2017-Apr-24 03:29N 53°34' E 008°34'0 0.0
2017-Apr-24 02:59N 53°34' E 008°34'0 0.0
2017-Apr-24 02:29N 53°34' E 008°34'0 0.0
2017-Apr-24 01:59N 53°34' E 008°34'0 0.0
2017-Apr-24 01:29N 53°34' E 008°34'0 0.0
2017-Apr-24 00:59N 53°34' E 008°34'0 0.0
2017-Apr-24 00:29N 53°34' E 008°34'0 0.0
2017-Apr-23 23:59N 53°34' E 008°34'0 0.0
2017-Apr-23 23:26N 53°34' E 008°34'0 0.0
2017-Apr-23 22:59N 53°34' E 008°34'0 0.0
2017-Apr-23 22:29N 53°34' E 008°34'0 0.0
2017-Apr-23 21:59N 53°34' E 008°34'0 0.0
2017-Apr-23 21:29N 53°34' E 008°34'0 0.0
2017-Apr-23 20:59N 53°34' E 008°34'0 0.0
2017-Apr-23 20:29N 53°34' E 008°34'0 0.0
2017-Apr-23 19:59N 53°34' E 008°34'0 0.0
2017-Apr-23 19:29N 53°34' E 008°34'0 0.0
2017-Apr-23 18:59N 53°34' E 008°34'0 0.0
2017-Apr-23 18:29N 53°34' E 008°34'0 0.0
2017-Apr-23 17:59N 53°34' E 008°34'0 0.0
2017-Apr-23 17:29N 53°34' E 008°34'0 0.0
2017-Apr-23 16:59N 53°34' E 008°34'0 0.3
2017-Apr-23 16:30N 53°34' E 008°34'1 2.1
2017-Apr-23 16:00N 53°35' E 008°33'0 0.0
2017-Apr-23 15:30N 53°35' E 008°33'0 0.0
2017-Apr-23 15:00N 53°35' E 008°33'0 0.0
2017-Apr-23 14:00N 53°35' E 008°33'0 0.0
2017-Apr-23 13:30N 53°35' E 008°33'0 0.0
2017-Apr-23 13:00N 53°35' E 008°33'0 0.0
2017-Apr-23 12:30N 53°35' E 008°33'0 0.0
2017-Apr-23 12:00N 53°35' E 008°33'0 0.0
2017-Apr-23 11:30N 53°35' E 008°33'0 0.0
2017-Apr-23 11:00N 53°35' E 008°33'0 0.0
2017-Apr-23 10:30N 53°35' E 008°33'0 0.0
2017-Apr-23 10:00N 53°35' E 008°33'0 0.0
2017-Apr-23 09:30N 53°35' E 008°33'0 0.0
2017-Apr-23 09:00N 53°35' E 008°33'0 0.0
2017-Apr-23 08:30N 53°35' E 008°33'0 0.0
2017-Apr-23 08:00N 53°35' E 008°33'0 0.0
2017-Apr-23 07:30N 53°35' E 008°33'0 0.0
2017-Apr-23 06:57N 53°35' E 008°33'0 0.0
2017-Apr-23 06:27N 53°35' E 008°33'0 0.0
2017-Apr-23 06:00N 53°35' E 008°33'1 2.6
2017-Apr-23 05:30N 53°33' E 008°34'0 0.0
2017-Apr-23 05:01N 53°33' E 008°34'3 5.3
2017-Apr-23 04:30N 53°36' E 008°31'917.0
2017-Apr-23 04:00N 53°42' E 008°21'918.1
2017-Apr-23 03:29N 53°48' E 008°08'816.8
2017-Apr-23 03:00N 53°51' E 007°56'815.6
2017-Apr-23 02:29N 53°53' E 007°43'612.5
2017-Apr-23 02:00N 53°58' E 007°37'4611.2
2017-Apr-22 21:53N 54°44' E 007°25'512.1
2017-Apr-22 21:28N 54°49' E 007°25'611.7
2017-Apr-22 21:00N 54°54' E 007°25'611.7
2017-Apr-22 20:31N 54°60' E 007°25'611.8
2017-Apr-22 20:01N 55°06' E 007°25'611.6
2017-Apr-22 19:31N 55°12' E 007°25'611.7
2017-Apr-22 19:01N 55°18' E 007°25'612.0
2017-Apr-22 18:31N 55°24' E 007°24'612.2
2017-Apr-22 18:01N 55°30' E 007°24'612.4
2017-Apr-22 17:30N 55°36' E 007°25'712.6
2017-Apr-22 16:57N 55°43' E 007°28'612.7
2017-Apr-22 16:31N 55°48' E 007°31'912.6
2017-Apr-22 15:47N 55°57' E 007°35'412.4
2017-Apr-22 15:29N 56°00' E 007°36'13512.8
2017-Apr-22 04:56N 57°44' E 010°14'715.8
2017-Apr-22 04:30N 57°46' E 010°26'816.6
2017-Apr-22 04:00N 57°48' E 010°41'815.6
2017-Apr-22 03:30N 57°45' E 010°54'816.4
2017-Apr-22 03:00N 57°39' E 011°06'816.3
2017-Apr-22 02:30N 57°34' E 011°18'816.4
2017-Apr-22 02:00N 57°27' E 011°27'816.1
2017-Apr-22 01:30N 57°20' E 011°32'816.1
2017-Apr-22 01:01N 57°13' E 011°37'815.9
2017-Apr-22 00:30N 57°05' E 011°42'916.3
2017-Apr-21 23:57N 56°56' E 011°48'4614.8
2017-Apr-21 20:53N 56°14' E 012°16'515.0
2017-Apr-21 20:31N 56°11' E 012°24'815.7
2017-Apr-21 20:01N 56°06' E 012°35'714.2
2017-Apr-21 19:30N 55°60' E 012°41'816.8
2017-Apr-21 19:00N 55°51' E 012°43'816.9
2017-Apr-21 18:30N 55°43' E 012°39'1 2.5
2017-Apr-21 17:58N 55°43' E 012°37'0 0.0
2017-Apr-21 17:28N 55°43' E 012°37'0 0.0
2017-Apr-21 16:58N 55°43' E 012°37'0 0.0
2017-Apr-21 16:28N 55°43' E 012°37'0 0.2
2017-Apr-21 16:00N 55°43' E 012°37'713.7
2017-Apr-21 15:30N 55°48' E 012°44'510.9
2017-Apr-21 15:00N 55°53' E 012°40'5 9.8
2017-Apr-21 14:31N 55°58' E 012°41'1211.5
2017-Apr-21 13:31N 56°08' E 012°29'611.6
2017-Apr-21 13:01N 56°11' E 012°21'5511.3
2017-Apr-21 08:09N 57°01' E 011°41'312.3
2017-Apr-21 07:55N 57°04' E 011°40'511.7
2017-Apr-21 07:29N 57°09' E 011°36'611.7
2017-Apr-21 07:00N 57°14' E 011°33'611.9
2017-Apr-21 06:31N 57°19' E 011°29'611.9
2017-Apr-21 06:00N 57°25' E 011°26'611.7
2017-Apr-21 05:31N 57°30' E 011°20'611.7
2017-Apr-21 05:01N 57°34' E 011°12'611.6
2017-Apr-21 04:30N 57°38' E 011°04'612.4
2017-Apr-21 04:00N 57°42' E 010°54'713.6
2017-Apr-21 03:30N 57°47' E 010°47'612.8
2017-Apr-21 03:00N 57°54' E 010°45'612.2
2017-Apr-21 02:30N 57°60' E 010°44'612.2
2017-Apr-21 02:00N 58°06' E 010°43'612.1
2017-Apr-21 01:29N 58°12' E 010°43'612.0
2017-Apr-21 01:01N 58°18' E 010°43'612.1
2017-Apr-21 00:30N 58°24' E 010°42'611.9
2017-Apr-21 00:00N 58°30' E 010°41'611.4
2017-Apr-20 23:30N 58°35' E 010°41'611.4
2017-Apr-20 23:01N 58°41' E 010°41'611.3
2017-Apr-20 22:30N 58°47' E 010°41'611.6
2017-Apr-20 22:00N 58°53' E 010°41'612.2
2017-Apr-20 21:30N 58°59' E 010°41'611.6
2017-Apr-20 21:00N 59°04' E 010°40'815.4
2017-Apr-20 20:31N 59°12' E 010°38'1019.1
2017-Apr-20 20:01N 59°22' E 010°35'918.7
2017-Apr-20 19:31N 59°30' E 010°27'612.2
2017-Apr-20 19:00N 59°36' E 010°25'5 9.2
2017-Apr-20 18:30N 59°41' E 010°23'611.4
2017-Apr-20 18:00N 59°44' E 010°14'0 0.1
2017-Apr-20 17:28N 59°44' E 010°14'0 0.0
2017-Apr-20 16:58N 59°44' E 010°14'0 0.0
2017-Apr-20 16:28N 59°44' E 010°14'0 0.0
2017-Apr-20 15:58N 59°44' E 010°14'0 0.0
2017-Apr-20 15:31N 59°44' E 010°14'0 0.0
2017-Apr-20 15:01N 59°44' E 010°14'0 0.0
2017-Apr-20 13:48N 59°44' E 010°14'0 0.0
2017-Apr-20 13:30N 59°44' E 010°14'0 0.0
2017-Apr-20 13:00N 59°44' E 010°14'0 0.0
2017-Apr-20 12:27N 59°44' E 010°14'0 0.0
2017-Apr-20 12:00N 59°44' E 010°14'1 1.3
2017-Apr-20 11:30N 59°44' E 010°15'612.2
2017-Apr-20 11:00N 59°40' E 010°24'5 9.4
2017-Apr-20 10:30N 59°35' E 010°25'713.5
2017-Apr-20 10:01N 59°29' E 010°30'917.6
2017-Apr-20 09:30N 59°37' E 010°38'815.1
2017-Apr-20 09:00N 59°44' E 010°33'917.7
2017-Apr-20 08:30N 59°52' E 010°38'4 7.1
2017-Apr-20 07:58N 59°53' E 010°46'0 0.0
2017-Apr-20 07:31N 59°53' E 010°46'0 0.0
2017-Apr-20 07:01N 59°53' E 010°46'0 0.0
2017-Apr-20 06:30N 59°53' E 010°46'0 0.0
2017-Apr-20 06:00N 59°53' E 010°46'0 0.0
2017-Apr-20 05:30N 59°53' E 010°46'0 0.0
2017-Apr-20 05:00N 59°53' E 010°46'0 0.0
2017-Apr-20 04:30N 59°53' E 010°46'3 6.3
2017-Apr-20 04:00N 59°53' E 010°40'917.4
2017-Apr-20 03:30N 59°44' E 010°35'714.1
2017-Apr-20 03:00N 59°37' E 010°38'1019.4
2017-Apr-20 02:30N 59°28' E 010°34'1019.4
2017-Apr-20 02:00N 59°18' E 010°37'1019.4
2017-Apr-20 01:31N 59°09' E 010°39'1019.2
2017-Apr-20 01:01N 58°60' E 010°32'917.4
2017-Apr-20 00:31N 58°53' E 010°23'816.7
2017-Apr-20 00:00N 58°45' E 010°15'816.7
2017-Apr-19 23:31N 58°38' E 010°06'19517.2
2017-Apr-19 12:10N 55°44' E 007°26'417.3
2017-Apr-19 11:57N 55°41' E 007°24'817.2
2017-Apr-19 11:30N 55°33' E 007°22'917.7
2017-Apr-19 11:00N 55°24' E 007°23'918.2
2017-Apr-19 10:30N 55°15' E 007°24'918.5
2017-Apr-19 10:00N 55°06' E 007°25'918.7
2017-Apr-19 09:30N 54°56' E 007°26'918.8
2017-Apr-19 09:00N 54°47' E 007°27'919.0
2017-Apr-19 08:30N 54°37' E 007°28'4717.8
2017-Apr-19 05:52N 53°52' E 007°52'719.7
2017-Apr-19 05:30N 53°50' E 008°04'919.0
2017-Apr-19 05:00N 53°44' E 008°15'917.9
2017-Apr-19 04:30N 53°38' E 008°27'612.0
2017-Apr-19 04:00N 53°33' E 008°33'0 0.6
2017-Apr-19 03:30N 53°33' E 008°34'1 1.1
2017-Apr-19 03:00N 53°34' E 008°34'0 0.0
2017-Apr-19 02:30N 53°34' E 008°34'0 0.0
2017-Apr-19 02:00N 53°34' E 008°34'0 0.0
2017-Apr-19 01:30N 53°34' E 008°34'0 0.0
2017-Apr-19 01:00N 53°34' E 008°34'0 0.0
2017-Apr-19 00:29N 53°34' E 008°34'0 0.0
2017-Apr-18 23:59N 53°34' E 008°34'0 0.0
2017-Apr-18 23:29N 53°34' E 008°34'0 0.0
2017-Apr-18 22:59N 53°34' E 008°34'0 0.0
2017-Apr-18 22:29N 53°34' E 008°34'0 0.0
2017-Apr-18 21:59N 53°34' E 008°34'0 0.0
2017-Apr-18 21:29N 53°34' E 008°34'0 0.0
2017-Apr-18 20:59N 53°34' E 008°34'0 1.0
2017-Apr-18 20:30N 53°34' E 008°33'1 1.5
2017-Apr-18 20:00N 53°35' E 008°33'0 0.0
2017-Apr-18 19:30N 53°35' E 008°33'0 0.0
2017-Apr-18 19:00N 53°35' E 008°33'0 0.0
2017-Apr-18 18:30N 53°35' E 008°33'0 0.0
2017-Apr-18 18:00N 53°35' E 008°33'0 0.0
2017-Apr-18 17:30N 53°35' E 008°33'0 0.0
2017-Apr-18 17:00N 53°35' E 008°33'0 0.0
2017-Apr-18 16:30N 53°35' E 008°33'0 0.0
2017-Apr-18 16:00N 53°35' E 008°33'1 1.0
2017-Apr-18 15:30N 53°34' E 008°33'3 5.7
2017-Apr-18 15:00N 53°36' E 008°30'918.0
2017-Apr-18 14:30N 53°42' E 008°18'1919.5
2017-Apr-18 13:30N 53°52' E 007°50'5210.8
2017-Apr-18 08:43N 54°42' E 007°25'312.2
2017-Apr-18 08:30N 54°45' E 007°25'612.0
2017-Apr-18 08:00N 54°51' E 007°25'612.0
2017-Apr-18 07:30N 54°57' E 007°25'611.8
2017-Apr-18 07:00N 55°02' E 007°25'713.9
2017-Apr-18 06:30N 55°09' E 007°25'816.8
2017-Apr-18 06:00N 55°18' E 007°24'816.8
2017-Apr-18 05:30N 55°26' E 007°22'816.7
2017-Apr-18 05:00N 55°35' E 007°21'916.6
2017-Apr-18 04:27N 55°43' E 007°25'816.9
2017-Apr-18 03:59N 55°51' E 007°29'  

Dump ship's entire track history